Time;durP1;ratioP1;P1;durP2;ratioP2;P2;SDS_P1;SDS_P2;PMS_P1;PMS_P2;Temp;Humidity;BMP_temperature;BMP_pressure;BME280_temperature;BME280_humidity;BME280_pressure;Samples;Min_cycle;Max_cycle;Signal;HPM_P1;HPM_P2
2022/03/14 00:02:25;;;;;;;22.90;17.08;;;10.40;99.90;;;;;;5017598;28;20034;-70
2022/03/14 00:04:51;;;;;;;21.75;16.90;;;10.30;99.90;;;;;;5000815;28;20463;-71
2022/03/14 00:07:18;;;;;;;22.80;17.13;;;10.30;99.90;;;;;;5018073;28;20038;-70
2022/03/14 00:09:43;;;;;;;20.55;15.68;;;10.30;99.90;;;;;;5012302;28;20034;-72
2022/03/14 00:12:13;;;;;;;20.08;14.77;;;10.20;99.90;;;;;;4997515;28;20052;-72
2022/03/14 00:14:38;;;;;;;23.20;15.98;;;10.20;99.90;;;;;;4980862;28;20495;-70
2022/03/14 00:17:11;;;;;;;20.63;15.48;;;10.20;99.90;;;;;;4997528;28;20038;-71
2022/03/14 00:19:36;;;;;;;18.83;14.55;;;10.20;99.90;;;;;;5008522;28;20432;-72
2022/03/14 00:22:04;;;;;;;19.77;14.40;;;10.20;99.90;;;;;;5017125;28;20111;-71
2022/03/14 00:24:29;;;;;;;16.55;13.00;;;10.20;99.90;;;;;;5005459;28;20050;-71
2022/03/14 00:26:55;;;;;;;17.27;12.65;;;10.10;99.90;;;;;;4997484;28;20046;-71
2022/03/14 00:29:21;;;;;;;15.43;12.27;;;10.10;99.90;;;;;;4980862;28;20049;-74
2022/03/14 00:31:47;;;;;;;15.95;12.55;;;10.10;99.90;;;;;;4997041;28;20050;-71
2022/03/14 00:34:14;;;;;;;12.93;10.85;;;10.10;99.90;;;;;;4998117;28;20125;-72
2022/03/14 00:36:42;;;;;;;14.57;11.18;;;10.20;99.90;;;;;;4997456;28;20042;-71
2022/03/14 00:39:07;;;;;;;13.63;9.93;;;10.20;99.90;;;;;;5008716;28;20103;-70
2022/03/14 00:41:33;;;;;;;13.70;10.32;;;10.10;99.90;;;;;;5017328;28;20424;-72
2022/03/14 00:43:59;;;;;;;15.68;10.27;;;10.10;99.90;;;;;;5017007;28;20046;-72
2022/03/14 00:46:24;;;;;;;12.23;9.98;;;10.10;99.90;;;;;;5016973;28;20056;-71
2022/03/14 00:48:50;;;;;;;11.18;8.65;;;10.10;99.90;;;;;;5016706;28;20038;-72
2022/03/14 00:51:15;;;;;;;10.10;8.10;;;10.10;99.90;;;;;;5016851;28;20033;-71
2022/03/14 00:53:41;;;;;;;9.23;7.65;;;10.10;99.90;;;;;;5006174;28;20432;-71
2022/03/14 00:56:07;;;;;;;15.02;7.10;;;10.10;99.90;;;;;;4979946;28;20039;-72
2022/03/14 00:58:33;;;;;;;11.00;8.05;;;10.10;99.90;;;;;;5005511;28;20068;-73
2022/03/14 01:00:59;;;;;;;9.73;7.97;;;10.10;99.90;;;;;;5016342;28;20084;-72
2022/03/14 01:03:25;;;;;;;10.50;7.72;;;10.10;99.90;;;;;;5016494;28;20410;-72
2022/03/14 01:05:50;;;;;;;12.05;7.35;;;10.10;99.90;;;;;;5016055;28;20117;-73
2022/03/14 01:08:16;;;;;;;9.35;7.00;;;10.10;99.90;;;;;;5014664;28;20092;-72
2022/03/14 01:10:42;;;;;;;10.30;7.47;;;10.10;99.90;;;;;;4999210;28;20065;-71
2022/03/14 01:13:11;;;;;;;8.60;6.60;;;10.10;99.90;;;;;;5016443;28;20041;-71
2022/03/14 01:15:37;;;;;;;8.52;7.15;;;10.10;99.90;;;;;;5016241;28;20129;-71
2022/03/14 01:18:04;;;;;;;9.38;7.07;;;10.10;99.90;;;;;;5016638;28;20042;-72
2022/03/14 01:20:31;;;;;;;7.90;6.50;;;10.00;99.90;;;;;;4995675;28;20126;-71
2022/03/14 01:22:57;;;;;;;7.70;6.80;;;10.10;99.90;;;;;;4996558;28;20145;-73
2022/03/14 01:25:24;;;;;;;8.48;6.88;;;10.00;99.90;;;;;;5015562;28;20077;-71
2022/03/14 01:27:50;;;;;;;10.45;6.25;;;10.10;99.90;;;;;;5015947;28;20050;-71
2022/03/14 01:30:17;;;;;;;7.65;6.53;;;10.10;99.90;;;;;;5015996;28;20365;-71
2022/03/14 01:32:43;;;;;;;8.02;6.80;;;10.10;99.90;;;;;;4998971;28;20042;-72
2022/03/14 01:35:08;;;;;;;8.65;6.90;;;10.10;99.90;;;;;;5015858;28;20404;-72
2022/03/14 01:37:34;;;;;;;8.07;6.43;;;10.10;99.90;;;;;;5015682;28;20043;-71
2022/03/14 01:39:59;;;;;;;9.35;6.65;;;10.10;99.90;;;;;;5015771;28;20050;-71
2022/03/14 01:42:25;;;;;;;8.20;6.85;;;10.10;99.90;;;;;;5015904;28;20061;-71
2022/03/14 01:44:51;;;;;;;7.38;6.47;;;10.10;99.90;;;;;;5015739;28;20104;-70
2022/03/14 01:47:17;;;;;;;8.65;6.82;;;10.10;99.90;;;;;;5015765;28;20428;-71
2022/03/14 01:49:43;;;;;;;8.68;6.30;;;10.10;99.90;;;;;;4998832;28;20052;-73
2022/03/14 01:52:09;;;;;;;8.23;6.68;;;10.10;99.90;;;;;;5014660;28;20061;-72
2022/03/14 01:54:36;;;;;;;8.55;6.68;;;10.10;99.90;;;;;;4998536;28;20093;-73
2022/03/14 01:57:02;;;;;;;7.88;6.43;;;10.10;99.90;;;;;;5015346;28;20081;-71
2022/03/14 01:59:29;;;;;;;7.00;6.30;;;10.10;99.90;;;;;;5015520;28;20100;-70
2022/03/14 02:01:56;;;;;;;8.75;7.05;;;10.10;99.90;;;;;;5015714;28;20427;-71
2022/03/14 02:04:22;;;;;;;8.90;7.10;;;10.10;99.90;;;;;;5015065;28;20415;-71
2022/03/14 02:06:51;;;;;;;9.82;7.72;;;10.10;99.90;;;;;;5000419;28;20093;-72
2022/03/14 02:09:16;;;;;;;9.35;7.60;;;10.10;99.90;;;;;;4995907;28;20034;-72
2022/03/14 02:11:52;;;;;;;9.63;7.85;;;10.10;99.90;;;;;;4995379;28;20050;-71
2022/03/14 02:14:18;;;;;;;9.35;7.38;;;10.10;99.90;;;;;;4995721;28;20349;-71
2022/03/14 02:16:44;;;;;;;8.02;7.10;;;10.10;99.90;;;;;;4995483;28;20105;-71
2022/03/14 02:19:09;;;;;;;8.55;7.22;;;10.00;99.90;;;;;;5002934;28;20037;-71
2022/03/14 02:21:35;;;;;;;9.02;7.68;;;10.10;99.90;;;;;;5000517;28;20117;-70
2022/03/14 02:24:02;;;;;;;10.10;8.07;;;10.10;99.90;;;;;;4995543;28;20138;-72
2022/03/14 02:26:27;;;;;;;11.23;7.82;;;10.10;99.90;;;;;;4995071;28;20049;-72
2022/03/14 02:28:53;;;;;;;9.57;7.10;;;10.10;99.90;;;;;;4978338;28;20057;-71
2022/03/14 02:31:18;;;;;;;8.70;7.45;;;10.00;99.90;;;;;;4995440;28;20399;-71
2022/03/14 02:33:44;;;;;;;8.50;7.00;;;10.00;99.90;;;;;;4995494;28;20380;-70
2022/03/14 02:36:09;;;;;;;8.70;7.28;;;10.00;99.90;;;;;;4991328;28;20057;-73
2022/03/14 02:38:35;;;;;;;8.25;7.10;;;10.00;99.90;;;;;;5014068;28;20041;-71
2022/03/14 02:41:00;;;;;;;10.38;7.60;;;10.00;99.90;;;;;;4995295;28;20052;-71
2022/03/14 02:43:26;;;;;;;8.90;7.32;;;10.00;99.90;;;;;;4978522;28;20050;-71
2022/03/14 02:45:52;;;;;;;9.43;7.00;;;10.00;99.90;;;;;;4995388;28;20049;-71
2022/03/14 02:48:23;;;;;;;10.88;7.95;;;10.00;99.90;;;;;;4995488;28;20042;-71
2022/03/14 02:50:53;;;;;;;9.55;7.22;;;10.00;99.90;;;;;;5008223;28;20132;-70
2022/03/14 02:53:19;;;;;;;9.32;7.22;;;10.00;99.90;;;;;;5014815;28;20084;-71
2022/03/14 02:55:45;;;;;;;8.02;6.78;;;10.00;99.90;;;;;;4997533;28;20046;-71
2022/03/14 02:58:11;;;;;;;9.05;7.93;;;10.00;99.90;;;;;;5013753;28;20050;-71
2022/03/14 03:00:37;;;;;;;12.68;9.95;;;10.00;99.90;;;;;;5014500;28;20077;-71
2022/03/14 03:03:05;;;;;;;13.05;11.00;;;9.90;99.90;;;;;;5014702;28;20088;-73
2022/03/14 03:05:31;;;;;;;14.70;11.40;;;9.90;99.90;;;;;;5014955;28;20052;-71
2022/03/14 03:08:00;;;;;;;16.55;12.32;;;9.90;99.90;;;;;;5014433;28;20060;-71
2022/03/14 03:10:28;;;;;;;16.95;12.63;;;9.90;99.90;;;;;;5015045;28;20044;-71
2022/03/14 03:12:54;;;;;;;16.45;12.77;;;9.90;99.90;;;;;;5014687;28;20038;-71
2022/03/14 03:15:19;;;;;;;21.15;16.45;;;9.90;99.90;;;;;;5014853;28;20038;-71
2022/03/14 03:17:45;;;;;;;18.65;15.90;;;9.80;99.90;;;;;;5014484;28;20125;-72
2022/03/14 03:20:12;;;;;;;19.67;15.52;;;9.80;99.90;;;;;;4997664;28;20061;-71
2022/03/14 03:22:38;;;;;;;19.67;16.33;;;9.80;99.90;;;;;;4996860;28;20053;-71
2022/03/14 03:25:08;;;;;;;24.50;17.38;;;9.80;99.90;;;;;;4997254;28;20428;-71
2022/03/14 03:27:34;;;;;;;23.50;18.25;;;9.70;99.90;;;;;;5014594;28;20450;-71
2022/03/14 03:30:00;;;;;;;21.30;17.33;;;9.70;99.90;;;;;;5014645;28;20042;-72
2022/03/14 03:32:26;;;;;;;25.10;17.67;;;9.70;99.90;;;;;;5014892;28;20034;-71
2022/03/14 03:34:51;;;;;;;23.30;17.98;;;9.70;99.90;;;;;;4997537;28;20111;-71
2022/03/14 03:37:17;;;;;;;21.83;17.70;;;9.70;99.90;;;;;;4980833;28;20061;-71
2022/03/14 03:39:43;;;;;;;19.30;15.70;;;9.80;99.90;;;;;;4997460;28;20138;-71
2022/03/14 03:42:08;;;;;;;18.45;15.18;;;9.70;99.90;;;;;;5014259;28;20328;-70
2022/03/14 03:44:34;;;;;;;20.05;15.77;;;9.70;99.90;;;;;;4997050;28;20038;-71
2022/03/14 03:47:01;;;;;;;21.90;16.70;;;9.70;99.90;;;;;;5014688;28;20067;-71
2022/03/14 03:49:26;;;;;;;19.42;13.95;;;9.70;99.90;;;;;;5018383;28;20042;-70
2022/03/14 03:51:52;;;;;;;18.13;13.68;;;9.70;99.90;;;;;;5017169;28;20057;-71
2022/03/14 03:54:18;;;;;;;17.13;12.27;;;9.80;99.90;;;;;;5017876;28;20046;-70
2022/03/14 03:56:43;;;;;;;14.80;12.40;;;9.80;99.90;;;;;;5017528;28;20046;-71
2022/03/14 03:59:09;;;;;;;13.73;11.30;;;9.80;99.90;;;;;;5017443;28;20089;-73
2022/03/14 04:01:35;;;;;;;16.23;11.68;;;9.80;99.90;;;;;;5017757;28;20081;-72
2022/03/14 04:04:01;;;;;;;14.23;11.57;;;9.80;99.90;;;;;;5017717;28;20130;-71
2022/03/14 04:06:28;;;;;;;13.77;11.55;;;9.80;99.90;;;;;;5017078;28;20547;-71
2022/03/14 04:08:55;;;;;;;14.88;11.15;;;9.80;99.90;;;;;;5017244;28;20472;-71
2022/03/14 04:11:21;;;;;;;14.02;11.20;;;9.80;99.90;;;;;;4966529;28;20053;-72
2022/03/14 04:13:48;;;;;;;12.20;9.57;;;9.90;99.90;;;;;;5017538;28;20396;-73
2022/03/14 04:16:17;;;;;;;11.23;9.80;;;9.90;99.90;;;;;;5000222;28;20068;-69
2022/03/14 04:18:42;;;;;;;11.73;9.70;;;9.90;99.90;;;;;;5017031;28;20115;-70
2022/03/14 04:21:08;;;;;;;10.48;8.57;;;9.90;99.90;;;;;;5017042;28;20495;-71
2022/03/14 04:23:34;;;;;;;10.95;8.80;;;9.90;99.90;;;;;;5017307;28;20436;-70
2022/03/14 04:25:59;;;;;;;11.27;9.05;;;9.90;99.90;;;;;;5017154;28;20428;-70
2022/03/14 04:28:25;;;;;;;10.57;8.90;;;9.90;99.90;;;;;;5017416;28;20071;-71
2022/03/14 04:30:51;;;;;;;10.82;8.73;;;9.80;99.90;;;;;;5000518;28;20078;-70
2022/03/14 04:33:16;;;;;;;9.95;8.23;;;9.80;99.90;;;;;;5017181;28;20049;-71
2022/03/14 04:35:42;;;;;;;10.93;9.05;;;9.80;99.90;;;;;;5016533;28;20415;-72
2022/03/14 04:38:08;;;;;;;10.48;8.40;;;9.80;99.90;;;;;;4999872;28;20441;-73
2022/03/14 04:40:34;;;;;;;10.15;8.95;;;9.80;99.90;;;;;;5016394;28;20037;-71
2022/03/14 04:43:08;;;;;;;10.13;8.18;;;9.80;99.90;;;;;;4999901;28;20046;-71
2022/03/14 04:45:35;;;;;;;10.68;8.57;;;9.80;99.90;;;;;;5017097;28;20125;-73
2022/03/14 04:48:01;;;;;;;8.20;7.20;;;9.80;99.90;;;;;;5017060;28;20056;-71
2022/03/14 04:50:27;;;;;;;8.82;7.40;;;9.80;99.90;;;;;;5016791;28;20431;-71
2022/03/14 04:52:54;;;;;;;9.38;7.63;;;9.80;99.90;;;;;;5016849;28;20068;-71
2022/03/14 04:55:20;;;;;;;8.48;7.05;;;9.70;99.90;;;;;;5016483;28;20046;-72
2022/03/14 04:57:45;;;;;;;8.73;6.95;;;9.70;99.90;;;;;;4998918;28;20100;-72
2022/03/14 05:00:12;;;;;;;8.65;7.38;;;9.70;99.90;;;;;;5015662;28;20046;-70
2022/03/14 05:02:38;;;;;;;10.80;7.68;;;9.70;99.90;;;;;;5016713;28;20113;-71
2022/03/14 05:05:04;;;;;;;8.70;7.72;;;9.60;99.90;;;;;;5015940;28;20152;-71
2022/03/14 05:07:30;;;;;;;8.73;7.10;;;9.60;99.90;;;;;;5016600;28;20038;-73
2022/03/14 05:09:56;;;;;;;8.27;7.05;;;9.60;99.90;;;;;;5016390;28;20176;-71
2022/03/14 05:12:21;;;;;;;7.57;6.78;;;9.60;99.90;;;;;;5016295;28;20134;-72
2022/03/14 05:14:50;;;;;;;10.07;7.15;;;9.50;99.90;;;;;;4999439;28;20476;-70
2022/03/14 05:17:17;;;;;;;7.72;6.40;;;9.50;99.90;;;;;;5016589;28;20042;-71
2022/03/14 05:19:43;;;;;;;7.85;6.85;;;9.50;99.90;;;;;;5015542;28;20546;-71
2022/03/14 05:22:08;;;;;;;8.38;6.93;;;9.40;99.90;;;;;;5016337;28;20100;-73
2022/03/14 05:24:34;;;;;;;8.55;6.80;;;9.40;99.90;;;;;;5016242;28;20100;-72
2022/03/14 05:26:59;;;;;;;9.32;6.45;;;9.40;99.90;;;;;;4999164;28;20085;-71
2022/03/14 05:29:25;;;;;;;9.10;6.15;;;9.40;99.90;;;;;;5016283;28;20053;-70
2022/03/14 05:31:50;;;;;;;8.43;5.72;;;9.40;99.90;;;;;;5016078;28;20033;-69
2022/03/14 05:34:16;;;;;;;8.40;5.80;;;9.40;99.90;;;;;;5015741;28;20037;-70
2022/03/14 05:36:42;;;;;;;8.10;6.53;;;9.30;99.90;;;;;;5015934;28;20459;-70
2022/03/14 05:39:08;;;;;;;8.55;6.10;;;9.30;99.90;;;;;;4999227;28;20103;-70
2022/03/14 05:41:34;;;;;;;6.30;5.55;;;9.30;99.90;;;;;;5015767;28;20034;-71
2022/03/14 05:43:59;;;;;;;6.82;5.53;;;9.30;99.90;;;;;;5015813;28;20344;-70
2022/03/14 05:46:25;;;;;;;7.15;5.22;;;9.30;99.90;;;;;;4998835;28;20060;-73
2022/03/14 05:48:51;;;;;;;7.57;5.85;;;9.30;99.90;;;;;;5015216;28;20120;-70
2022/03/14 05:51:16;;;;;;;7.10;5.35;;;9.30;99.90;;;;;;5015705;28;20335;-71
2022/03/14 05:53:42;;;;;;;7.70;5.45;;;9.30;99.90;;;;;;5015586;28;20504;-70
2022/03/14 05:56:07;;;;;;;6.63;5.70;;;9.30;99.90;;;;;;5015548;28;20077;-70
2022/03/14 05:58:34;;;;;;;7.43;6.20;;;9.30;99.90;;;;;;5015252;28;20133;-71
2022/03/14 06:00:59;;;;;;;7.35;5.47;;;9.30;99.90;;;;;;5015098;28;20441;-72
2022/03/14 06:03:25;;;;;;;9.85;5.80;;;9.30;99.90;;;;;;5014863;28;20069;-70
2022/03/14 06:05:51;;;;;;;9.48;5.85;;;9.40;99.90;;;;;;5015458;28;20111;-71
2022/03/14 06:08:18;;;;;;;6.50;5.32;;;9.40;99.90;;;;;;4998083;28;20046;-71
2022/03/14 06:10:46;;;;;;;7.15;5.30;;;9.40;99.90;;;;;;5015358;28;20073;-70
2022/03/14 06:13:13;;;;;;;7.10;5.68;;;9.40;99.90;;;;;;5015378;28;20052;-70
2022/03/14 06:15:39;;;;;;;6.78;5.22;;;9.40;99.90;;;;;;5015581;28;20042;-71
2022/03/14 06:18:05;;;;;;;8.35;6.43;;;9.40;99.90;;;;;;5014803;28;20046;-72
2022/03/14 06:20:30;;;;;;;6.90;5.57;;;9.40;99.90;;;;;;4996976;28;20126;-71
2022/03/14 06:22:56;;;;;;;6.95;5.70;;;9.50;99.90;;;;;;5006325;28;20069;-71
2022/03/14 06:25:21;;;;;;;7.80;5.68;;;9.50;99.90;;;;;;5015146;28;20338;-72
2022/03/14 06:27:47;;;;;;;6.40;5.45;;;9.50;99.90;;;;;;5014934;28;20042;-73
2022/03/14 06:30:14;;;;;;;6.93;6.00;;;9.50;99.90;;;;;;5015343;28;20088;-72
2022/03/14 06:32:42;;;;;;;6.35;5.75;;;9.50;99.90;;;;;;5014803;28;20158;-72
2022/03/14 06:35:10;;;;;;;8.65;5.60;;;9.50;99.90;;;;;;5014801;28;20113;-72
2022/03/14 06:37:36;;;;;;;8.57;6.45;;;9.50;99.90;;;;;;5015040;28;20041;-71
2022/03/14 06:40:03;;;;;;;7.57;6.30;;;9.50;99.90;;;;;;4997379;28;20049;-70
2022/03/14 06:42:29;;;;;;;8.02;6.90;;;9.50;99.90;;;;;;5015077;28;20045;-72
2022/03/14 06:44:58;;;;;;;8.27;7.03;;;9.50;99.90;;;;;;5014523;28;20049;-73
2022/03/14 06:47:24;;;;;;;9.88;6.72;;;9.50;99.90;;;;;;5014605;28;20056;-72
2022/03/14 06:49:49;;;;;;;9.70;7.95;;;9.40;99.90;;;;;;5014776;28;20478;-70
2022/03/14 06:52:16;;;;;;;8.65;7.00;;;9.50;99.90;;;;;;4997975;28;20083;-71
2022/03/14 06:54:41;;;;;;;10.70;7.15;;;9.40;99.90;;;;;;5014715;28;20041;-71
2022/03/14 06:57:08;;;;;;;9.73;7.82;;;9.50;99.90;;;;;;5014558;28;20046;-71
2022/03/14 06:59:34;;;;;;;13.48;8.10;;;9.40;99.90;;;;;;5014714;28;20472;-69
2022/03/14 07:02:00;;;;;;;9.82;8.07;;;9.40;99.90;;;;;;5014376;28;20104;-70
2022/03/14 07:04:27;;;;;;;10.60;7.50;;;9.40;99.90;;;;;;5014593;28;20042;-72
2022/03/14 07:06:52;;;;;;;10.73;8.02;;;9.40;99.90;;;;;;5014696;28;20034;-71
2022/03/14 07:09:18;;;;;;;11.85;8.75;;;9.40;99.90;;;;;;4997067;28;20107;-72
2022/03/14 07:11:44;;;;;;;9.68;8.65;;;9.40;99.90;;;;;;5014712;28;20042;-70
2022/03/14 07:14:09;;;;;;;13.27;9.00;;;9.40;99.90;;;;;;5014832;28;20034;-71
2022/03/14 07:16:35;;;;;;;11.23;9.40;;;9.40;99.90;;;;;;5014358;28;20038;-70
2022/03/14 07:19:01;;;;;;;12.30;9.88;;;9.40;99.90;;;;;;5008471;28;20042;-72
2022/03/14 07:21:28;;;;;;;11.35;9.02;;;9.40;99.90;;;;;;4995305;28;20068;-71
2022/03/14 07:23:55;;;;;;;15.05;9.93;;;9.40;99.90;;;;;;4998460;28;20061;-71
2022/03/14 07:26:21;;;;;;;13.93;8.98;;;9.50;99.90;;;;;;4998642;28;20050;-72
2022/03/14 07:28:48;;;;;;;13.23;10.43;;;9.40;99.90;;;;;;4998518;28;20035;-71
2022/03/14 07:31:14;;;;;;;12.52;9.95;;;9.30;99.90;;;;;;5001057;28;20337;-73
2022/03/14 07:33:40;;;;;;;13.00;10.27;;;9.40;99.90;;;;;;5009934;28;20038;-74
2022/03/14 07:36:05;;;;;;;12.88;10.05;;;9.40;99.90;;;;;;4998393;28;20042;-76
2022/03/14 07:38:31;;;;;;;12.63;10.05;;;9.40;99.90;;;;;;4998786;28;20067;-75
2022/03/14 07:40:56;;;;;;;13.60;10.52;;;9.40;99.90;;;;;;5000100;28;20034;-72
2022/03/14 07:43:22;;;;;;;17.58;10.95;;;9.30;99.90;;;;;;5014492;28;20038;-73
2022/03/14 07:45:48;;;;;;;13.18;10.80;;;9.30;99.90;;;;;;5017894;28;20056;-74
2022/03/14 07:48:13;;;;;;;13.30;10.73;;;9.30;99.90;;;;;;5000201;28;20077;-73
2022/03/14 07:50:40;;;;;;;12.55;11.02;;;9.30;99.90;;;;;;5017741;28;20081;-75
2022/03/14 07:53:07;;;;;;;16.90;12.15;;;9.30;99.90;;;;;;5017831;28;20041;-73
2022/03/14 07:55:32;;;;;;;15.00;12.65;;;9.30;99.90;;;;;;5017783;28;20053;-74
2022/03/14 07:57:58;;;;;;;13.95;11.15;;;9.30;99.90;;;;;;5021632;28;20363;-73
2022/03/14 08:00:24;;;;;;;14.32;11.57;;;9.30;99.90;;;;;;5025213;28;20041;-73
2022/03/14 08:02:50;;;;;;;15.98;12.27;;;9.30;99.90;;;;;;5017646;28;20049;-74
2022/03/14 08:05:17;;;;;;;14.02;12.13;;;9.30;99.90;;;;;;5017539;28;20053;-73
2022/03/14 08:07:45;;;;;;;16.30;12.13;;;9.30;99.90;;;;;;5000820;28;20072;-72
2022/03/14 08:10:11;;;;;;;14.82;12.38;;;9.30;99.90;;;;;;5017744;28;20052;-74
2022/03/14 08:12:55;;;;;;;14.50;12.13;;;9.30;99.90;;;;;;5017169;28;20104;-77
2022/03/14 08:15:23;;;;;;;14.38;12.25;;;9.30;99.90;;;;;;5017631;28;20038;-75
2022/03/14 08:17:50;;;;;;;17.75;15.00;;;9.20;99.90;;;;;;5007902;28;20038;-74
2022/03/14 08:20:16;;;;;;;19.17;15.05;;;9.20;99.90;;;;;;5004014;28;20038;-75
2022/03/14 08:22:41;;;;;;;17.83;15.05;;;9.20;99.90;;;;;;5016530;28;20483;-74
2022/03/14 08:25:08;;;;;;;23.67;19.05;;;9.30;99.90;;;;;;5022256;28;20045;-76
2022/03/14 08:27:34;;;;;;;26.75;21.10;;;9.20;99.90;;;;;;4996757;28;20060;-76
2022/03/14 08:29:59;;;;;;;27.52;22.35;;;9.20;99.90;;;;;;5017143;28;20125;-75
2022/03/14 08:32:25;;;;;;;29.30;22.33;;;9.20;99.90;;;;;;5017107;28;20141;-76
2022/03/14 08:34:55;;;;;;;29.88;23.42;;;9.20;99.90;;;;;;4998692;28;20491;-74
2022/03/14 08:37:20;;;;;;;40.25;28.30;;;9.10;99.90;;;;;;5017349;28;20042;-75
2022/03/14 08:39:47;;;;;;;49.05;30.20;;;9.20;99.90;;;;;;5016749;28;20357;-76
2022/03/14 08:42:13;;;;;;;53.53;31.63;;;9.10;99.90;;;;;;4999407;28;20050;-75
2022/03/14 08:44:38;;;;;;;61.00;33.85;;;9.10;99.90;;;;;;5016889;28;20321;-77
2022/03/14 08:47:04;;;;;;;74.00;35.95;;;9.10;99.90;;;;;;5016928;28;20068;-74
2022/03/14 08:49:29;;;;;;;81.57;39.25;;;9.00;99.90;;;;;;5013531;28;20380;-75
2022/03/14 08:51:55;;;;;;;79.10;38.70;;;9.00;99.90;;;;;;5016796;28;20050;-76
2022/03/14 08:54:21;;;;;;;73.32;36.15;;;8.90;99.90;;;;;;5016096;28;20041;-74
2022/03/14 08:56:46;;;;;;;76.10;36.72;;;8.90;99.90;;;;;;5015799;28;20407;-74
2022/03/14 08:59:12;;;;;;;66.63;32.78;;;8.80;99.90;;;;;;5002869;28;20061;-75
2022/03/14 09:01:38;;;;;;;67.85;33.75;;;8.80;99.90;;;;;;4995939;28;20101;-73
2022/03/14 09:04:05;;;;;;;66.22;33.80;;;8.70;99.90;;;;;;4997002;28;20050;-78
2022/03/14 09:06:32;;;;;;;56.13;30.58;;;8.70;99.90;;;;;;4996879;28;20042;-76
2022/03/14 09:08:58;;;;;;;59.67;32.60;;;8.70;99.90;;;;;;4996700;28;20184;-75
2022/03/14 09:11:24;;;;;;;58.15;30.35;;;8.70;99.90;;;;;;4995985;28;20523;-76
2022/03/14 09:13:50;;;;;;;47.35;26.55;;;8.80;99.90;;;;;;4995859;28;20444;-76
2022/03/14 09:16:16;;;;;;;48.42;25.15;;;8.80;99.90;;;;;;4997022;28;20421;-74
2022/03/14 09:18:42;;;;;;;38.28;20.15;;;8.80;99.90;;;;;;4997004;28;20112;-73
2022/03/14 09:21:07;;;;;;;35.55;18.52;;;8.80;99.90;;;;;;4997289;28;20046;-72
2022/03/14 09:23:33;;;;;;;32.05;17.67;;;8.80;99.90;;;;;;4996238;28;20436;-72
2022/03/14 09:25:59;;;;;;;32.85;15.10;;;8.80;99.90;;;;;;4996792;28;20057;-74
2022/03/14 09:28:25;;;;;;;31.02;14.70;;;8.90;99.90;;;;;;4995731;28;20050;-73
2022/03/14 09:30:52;;;;;;;26.17;14.48;;;8.90;99.90;;;;;;4996585;28;20104;-72
2022/03/14 09:33:17;;;;;;;30.95;15.15;;;9.00;99.90;;;;;;4996636;28;20053;-71
2022/03/14 09:35:43;;;;;;;30.90;14.82;;;9.00;99.90;;;;;;4995097;28;20114;-75
2022/03/14 09:38:13;;;;;;;33.55;14.52;;;9.10;99.90;;;;;;4993564;28;20057;-72
2022/03/14 09:40:39;;;;;;;28.90;12.77;;;9.10;99.90;;;;;;4996178;28;20364;-74
2022/03/14 09:43:05;;;;;;;26.45;12.82;;;9.20;99.90;;;;;;4995386;28;20042;-74
2022/03/14 09:45:34;;;;;;;29.23;12.88;;;9.30;99.90;;;;;;4993199;28;20066;-77
2022/03/14 09:48:02;;;;;;;25.10;10.45;;;9.40;99.90;;;;;;4995978;28;20050;-76
2022/03/14 09:50:54;;;;;;;18.35;9.07;;;9.50;99.90;;;;;;4995963;28;20322;-73
2022/03/14 09:53:20;;;;;;;17.40;7.35;;;9.50;99.90;;;;;;4989242;28;20066;-74
2022/03/14 09:55:48;;;;;;;18.73;6.95;;;9.60;99.90;;;;;;4995825;28;20038;-74
2022/03/14 09:58:19;;;;;;;15.77;7.13;;;9.60;99.90;;;;;;4996349;28;20062;-72
2022/03/14 10:00:46;;;;;;;15.02;6.57;;;9.70;99.90;;;;;;4995668;28;20440;-74
2022/03/14 10:03:13;;;;;;;19.42;7.65;;;9.80;99.90;;;;;;4994363;28;20361;-74
2022/03/14 10:05:39;;;;;;;15.50;7.10;;;9.70;99.90;;;;;;4995890;28;20209;-73
2022/03/14 10:08:05;;;;;;;17.25;8.38;;;9.60;99.90;;;;;;4995859;28;20079;-73
2022/03/14 10:10:31;;;;;;;20.17;8.88;;;9.60;99.90;;;;;;4995538;28;20053;-74
2022/03/14 10:12:57;;;;;;;18.30;8.15;;;9.60;99.90;;;;;;4991831;28;20038;-73
2022/03/14 10:15:25;;;;;;;22.52;8.48;;;9.70;99.90;;;;;;4995811;28;20480;-73
2022/03/14 10:17:52;;;;;;;17.42;8.55;;;9.70;99.90;;;;;;4995741;28;20046;-72
2022/03/14 10:20:18;;;;;;;14.27;8.23;;;9.60;99.90;;;;;;4995677;28;20038;-74
2022/03/14 10:22:45;;;;;;;16.77;8.93;;;9.60;99.90;;;;;;4995454;28;20035;-75
2022/03/14 10:25:19;;;;;;;18.52;9.20;;;9.50;99.90;;;;;;4995707;28;20046;-73
2022/03/14 10:27:47;;;;;;;22.52;9.50;;;9.50;99.90;;;;;;4995551;28;20053;-74
2022/03/14 10:30:33;;;;;;;22.45;10.55;;;9.40;99.90;;;;;;4994795;28;20038;-73
2022/03/14 10:33:08;;;;;;;20.33;9.52;;;9.40;99.90;;;;;;4995087;28;20038;-75
2022/03/14 10:35:35;;;;;;;19.85;9.55;;;9.50;99.90;;;;;;4995306;28;20077;-73
2022/03/14 10:38:04;;;;;;;21.92;10.32;;;9.40;99.90;;;;;;4995293;28;20046;-75
2022/03/14 10:40:35;;;;;;;22.67;9.90;;;9.50;99.90;;;;;;4995612;28;20053;-74
2022/03/14 10:43:01;;;;;;;19.98;9.93;;;9.40;99.90;;;;;;4994805;28;20042;-72
2022/03/14 10:45:31;;;;;;;25.48;11.52;;;9.50;99.90;;;;;;4994832;28;20112;-74
2022/03/14 10:47:57;;;;;;;22.60;10.40;;;9.50;99.90;;;;;;4993782;28;20038;-74
2022/03/14 10:50:34;;;;;;;20.00;10.88;;;9.60;99.90;;;;;;4995321;28;20049;-75
2022/03/14 10:53:02;;;;;;;23.98;11.40;;;9.70;99.90;;;;;;4995258;28;20104;-74
2022/03/14 10:55:39;;;;;;;23.13;12.13;;;9.70;99.90;;;;;;4994219;28;20475;-74
2022/03/14 10:58:18;;;;;;;27.40;13.30;;;9.70;99.90;;;;;;5002416;28;20116;-72
2022/03/14 11:00:51;;;;;;;25.45;12.40;;;9.70;99.90;;;;;;5009291;28;20042;-72
2022/03/14 11:03:28;;;;;;;25.70;13.35;;;9.70;99.90;;;;;;4999163;28;20042;-78
2022/03/14 11:06:04;;;;;;;24.48;14.43;;;9.80;99.90;;;;;;4999030;28;20081;-74
2022/03/14 11:08:30;;;;;;;26.98;14.75;;;9.80;99.90;;;;;;4981032;28;20528;-76
2022/03/14 11:10:57;;;;;;;26.50;15.27;;;9.80;99.90;;;;;;4998960;28;20093;-74
2022/03/14 11:13:24;;;;;;;32.05;16.20;;;9.70;99.90;;;;;;4982088;28;20405;-74
2022/03/14 11:15:50;;;;;;;29.08;16.58;;;9.70;99.90;;;;;;4998768;28;20460;-72
2022/03/14 11:18:18;;;;;;;28.58;16.45;;;9.70;99.90;;;;;;4999595;28;20034;-75
2022/03/14 11:20:44;;;;;;;29.98;17.63;;;9.70;99.90;;;;;;4999613;28;20042;-73
2022/03/14 11:23:12;;;;;;;40.78;17.85;;;9.70;99.90;;;;;;4976309;28;20054;-74
2022/03/14 11:25:38;;;;;;;36.47;18.33;;;9.70;99.90;;;;;;4997603;28;20061;-73
2022/03/14 11:28:05;;;;;;;33.30;18.17;;;9.80;99.90;;;;;;4993122;28;20461;-73
2022/03/14 11:30:35;;;;;;;32.63;17.85;;;9.90;99.90;;;;;;4996223;28;20045;-74
2022/03/14 11:33:04;;;;;;;30.58;17.58;;;9.80;99.90;;;;;;4997633;28;20061;-75
2022/03/14 11:35:31;;;;;;;32.22;16.63;;;9.90;99.90;;;;;;4982808;28;20042;-73
2022/03/14 11:37:57;;;;;;;28.00;16.73;;;9.70;99.90;;;;;;4990623;28;20038;-76
2022/03/14 11:40:23;;;;;;;31.88;17.73;;;9.80;99.90;;;;;;4977098;28;20042;-75
2022/03/14 11:42:49;;;;;;;27.10;15.63;;;9.90;99.90;;;;;;4990510;28;20065;-75
2022/03/14 11:45:15;;;;;;;33.00;15.43;;;9.90;99.90;;;;;;4990467;28;20456;-75
2022/03/14 11:47:41;;;;;;;32.10;15.30;;;9.90;99.90;;;;;;4997488;28;20042;-73
2022/03/14 11:50:07;;;;;;;26.95;13.57;;;9.90;99.90;;;;;;4998093;28;20038;-81
2022/03/14 11:52:39;;;;;;;33.53;14.68;;;10.00;99.90;;;;;;4981330;28;20185;-75
2022/03/14 11:55:27;;;;;;;25.05;13.18;;;10.00;99.90;;;;;;4978923;28;20065;-77
2022/03/14 11:57:52;;;;;;;33.53;14.65;;;10.00;99.90;;;;;;4997705;28;20132;-78
2022/03/14 12:00:21;;;;;;;23.48;13.93;;;10.10;99.90;;;;;;5014585;28;20424;-75
2022/03/14 12:02:53;;;;;;;29.20;15.60;;;10.10;99.90;;;;;;5016410;28;20042;-73
2022/03/14 12:05:38;;;;;;;33.60;14.55;;;10.20;99.90;;;;;;5006792;28;20064;-76
2022/03/14 12:08:15;;;;;;;27.98;14.15;;;10.20;99.90;;;;;;5017604;28;20041;-78
2022/03/14 12:10:41;;;;;;;27.40;12.98;;;10.20;99.90;;;;;;5017478;28;20124;-76
2022/03/14 12:13:07;;;;;;;28.05;14.05;;;10.10;99.90;;;;;;5017523;28;20465;-77
2022/03/14 12:15:39;;;;;;;22.23;12.27;;;10.30;99.90;;;;;;5017855;28;20340;-78
2022/03/14 12:18:23;;;;;;;30.55;13.63;;;10.30;99.90;;;;;;5018103;28;20454;-76
2022/03/14 12:20:50;;;;;;;25.00;12.57;;;10.30;99.90;;;;;;4997895;28;20119;-76
2022/03/14 12:23:32;;;;;;;24.30;12.48;;;10.40;99.90;;;;;;5012987;28;20042;-73
2022/03/14 12:25:59;;;;;;;28.55;10.88;;;10.50;99.90;;;;;;5010126;28;20045;-72
2022/03/14 12:28:33;;;;;;;20.95;10.98;;;10.40;99.90;;;;;;4998304;28;20497;-73
2022/03/14 12:31:10;;;;;;;21.73;11.27;;;10.50;99.90;;;;;;5007720;28;20368;-72
2022/03/14 12:33:38;;;;;;;24.00;10.00;;;10.60;99.90;;;;;;5010354;28;20456;-75
2022/03/14 12:36:31;;;;;;;21.38;9.50;;;10.70;99.90;;;;;;5007448;28;20096;-74
2022/03/14 12:39:09;;;;;;;20.23;10.68;;;10.60;99.90;;;;;;5007752;28;20034;-75
2022/03/14 12:41:39;;;;;;;23.63;10.05;;;10.60;99.90;;;;;;4997829;28;20319;-76
2022/03/14 12:44:24;;;;;;;20.65;10.77;;;10.70;99.90;;;;;;4996859;28;20444;-76